Latest Weather Observations for Rhyll

IDV60801

Issued at 9:31 pm EST Saturday 28 May 2016 (issued every 30 minutes, with the page automatically refreshed every 10 minutes)

About weather observations | Map of weather stations | Latest weather observations for VIC | Other Formats
Station Details ID: 086373 Name: RHYLL Lat: -38.46 Lon: 145.31 Height: 13.4 m
Data from the previous 72 hours. | See also: Recent months at Rhyll
Date/Time
EST
Temp
°C
App
Temp
°C
Dew
Point
Rel
Hum
%
Delta-T
°C
Wind Press
QNH
hPa
Press
MSL
hPa
Rain
since 9 am
mm
Dir
 
Spd
km/h
Gust
km/h
Spd
kts
Gust
kts
28/09:30pm 10.6 8.4 8.0 84 1.3 WSW 9 17 5 9 1015.3 1015.3 5.4
28/09:00pm 10.4 8.3 8.2 86 1.1 WSW 9 17 5 9 1015.3 1015.3 5.4
28/08:30pm 11.3 8.1 7.0 75 2.0 WSW 13 26 7 14 1015.0 1015.0 5.2
28/08:00pm 11.5 9.0 6.4 71 2.4 WSW 9 17 5 9 1014.7 1014.7 5.2
28/07:30pm 11.5 8.1 5.8 68 2.7 SW 13 24 7 13 1014.4 1014.4 5.2
28/07:00pm 11.6 8.2 6.1 69 2.6 SW 13 24 7 13 1014.2 1014.2 5.2
28/06:30pm 11.6 7.4 5.9 68 2.7 SW 17 26 9 14 1013.9 1013.9 5.2
28/06:00pm 11.6 8.6 7.9 78 1.8 SW 13 24 7 13 1013.5 1013.5 5.2
28/05:30pm 11.0 7.3 8.1 82 1.4 SW 17 24 9 13 1013.2 1013.2 5.2
28/05:00pm 10.3 7.6 9.1 92 0.6 SW 13 20 7 11 1012.8 1012.8 5.2
28/04:30pm 10.7 8.2 9.8 94 0.5 SW 13 20 7 11 1012.7 1012.7 4.6
28/04:00pm 11.9 8.5 9.1 83 1.4 SW 17 30 9 16 1012.4 1012.4 1.4
28/03:30pm 11.7 9.7 10.3 91 0.7 SW 11 22 6 12 1012.1 1012.1 1.4
28/03:00pm 12.9 10.2 9.0 77 2.0 SW 13 20 7 11 1011.8 1011.8 0.8
28/02:30pm 13.2 9.3 8.5 73 2.3 SW 19 35 10 19 1011.4 1011.4 0.8
28/02:00pm 13.2 9.2 8.9 75 2.2 SSW 20 37 11 20 1011.2 1011.2 0.8
28/01:30pm 13.6 9.9 7.8 68 2.9 SSW 17 26 9 14 1011.0 1011.0 0.8
28/01:00pm 13.1 9.8 8.0 71 2.5 SSW 15 28 8 15 1010.9 1010.9 0.8
28/12:30pm 11.5 10.1 9.4 87 1.1 SW 7 13 4 7 1010.9 1010.9 0.8
28/12:00pm 11.2 8.8 8.6 84 1.3 SW 11 20 6 11 1011.1 1011.1 0.8
28/11:30am 12.3 8.8 8.8 79 1.7 SSW 17 26 9 14 1011.2 1011.2 0.0
28/11:00am 13.6 10.7 8.2 70 2.7 S 13 19 7 10 1011.0 1011.0 0.0
28/10:30am 13.8 10.8 7.8 67 3.0 S 13 20 7 11 1011.0 1011.0 0.0
28/10:00am 12.9 9.8 7.4 69 2.7 S 13 20 7 11 1010.9 1010.9 0.0
28/09:30am 12.3 8.8 7.4 72 2.4 S 15 35 8 19 1010.4 1010.4 0.0
28/09:00am 11.6 8.2 7.5 76 2.0 S 15 26 8 14 1010.1 1010.1 0.4
28/08:30am 11.3 8.0 8.0 80 1.6 S 15 24 8 13 1009.8 1009.8 0.4
28/08:00am 10.3 7.9 8.7 90 0.8 ESE 11 17 6 9 1009.7 1009.7 0.4
28/07:30am 9.9 8.2 8.3 90 0.8 SE 7 13 4 7 1009.5 1009.5 0.4
28/07:00am 9.9 9.1 8.0 88 0.9 SSE 2 7 1 4 1009.2 1009.2 0.4
28/06:30am 10.3 7.4 6.5 77 1.8 SW 11 15 6 8 1008.7 1008.7 0.4
28/06:00am 8.9 7.0 6.7 86 1.0 SW 6 9 3 5 1008.6 1008.6 0.4
28/05:30am 9.0 7.8 7.9 93 0.5 WSW 4 7 2 4 1008.4 1008.4 0.4
28/05:00am 9.8 8.5 9.2 96 0.3 NW 6 11 3 6 1008.3 1008.3 0.4
28/04:30am 9.6 8.1 9.1 97 0.2 N 7 9 4 5 1008.2 1008.2 0.4
28/04:00am 9.3 8.7 8.8 97 0.2 NNW 2 7 1 4 1008.2 1008.2 0.4
28/03:30am 9.3 7.8 8.5 95 0.4 NNW 6 7 3 4 1008.1 1008.1 0.4
28/03:00am 9.4 7.8 8.8 96 0.3 N 7 11 4 6 1008.2 1008.2 0.2
28/02:30am 9.1 7.6 8.6 97 0.2 NNW 6 9 3 5 1008.4 1008.4 0.2
28/02:00am 9.2 7.6 8.7 97 0.2 NW 7 9 4 5 1008.3 1008.3 0.2
28/01:30am 9.0 7.4 8.6 97 0.2 NNW 7 9 4 5 1008.2 1008.2 0.2
28/01:00am 9.2 7.6 8.7 97 0.2 NNW 7 9 4 5 1008.2 1008.2 0.2
28/12:30am 9.1 7.6 8.3 95 0.4 NNW 6 9 3 5 1008.3 1008.3 0.0
28/12:00am 9.4 8.6 8.3 93 0.5 N 2 6 1 3 1008.4 1008.4 0.0
 
Date/Time
EST
Temp
°C
App
Temp
°C
Dew
Point
Rel
Hum
%
Delta-T
°C
Wind Press
QNH
hPa
Press
MSL
hPa
Rain
since 9 am
mm
Dir
 
Spd
km/h
Gust
km/h
Spd
kts
Gust
kts
27/11:30pm 9.4 7.7 8.5 94 0.4 NE 7 11 4 6 1008.3 1008.3 0.0
27/11:00pm 9.9 8.9 8.7 92 0.6 NE 4 6 2 3 1008.2 1008.2 0.0
27/10:30pm 9.9 8.7 8.2 89 0.8 SSE 4 11 2 6 1008.2 1008.2 0.0
27/10:00pm 9.8 8.6 7.9 88 0.9 SW 4 6 2 3 1008.3 1008.3 0.0
27/09:30pm 10.5 9.0 8.6 88 0.9 WNW 6 7 3 4 1008.2 1008.2 0.0
27/09:00pm 10.8 9.3 8.6 86 1.1 NW 6 6 3 3 1008.1 1008.1 0.0
27/08:30pm 11.0 9.8 8.2 83 1.4 NW 4 6 2 3 1008.0 1008.0 0.0
27/08:00pm 10.8 9.2 6.4 74 2.1 WNW 4 6 2 3 1007.8 1007.8 0.0
27/07:30pm 10.6 9.8 6.6 76 1.9 CALM 0 0 0 0 1007.7 1007.7 0.0
27/07:00pm 11.2 9.7 6.9 75 2.0 WNW 4 6 2 3 1007.6 1007.6 0.0
27/06:30pm 11.1 9.7 7.4 78 1.8 WNW 4 6 2 3 1007.4 1007.4 0.0
27/06:00pm 10.7 9.3 7.4 80 1.6 WNW 4 6 2 3 1007.4 1007.4 0.0
27/05:30pm 10.8 9.5 7.5 80 1.6 WNW 4 6 2 3 1007.0 1007.0 0.0
27/05:00pm 11.6 10.4 7.9 78 1.8 WNW 4 6 2 3 1006.9 1006.9 0.0
27/04:30pm 11.9 10.7 8.2 78 1.8 WNW 4 6 2 3 1006.8 1006.8 0.0
27/04:00pm 12.1 10.3 7.8 75 2.1 W 7 11 4 6 1006.7 1006.7 0.0
27/03:30pm 13.0 10.1 6.6 65 3.1 SW 11 19 6 10 1006.6 1006.6 0.0
27/03:00pm 12.7 11.6 8.4 75 2.1 WSW 4 9 2 5 1006.3 1006.3 0.0
27/02:30pm 13.4 11.5 7.6 68 2.8 WSW 7 15 4 8 1006.4 1006.4 0.0
27/02:00pm 12.4 11.1 9.1 80 1.7 WNW 6 9 3 5 1006.4 1006.4 0.0
27/01:30pm 12.0 10.0 8.5 79 1.7 W 9 15 5 8 1006.5 1006.5 0.0
27/01:00pm 14.2 12.6 8.8 70 2.7 W 7 17 4 9 1006.4 1006.4 0.0
27/12:30pm 13.7 10.3 5.8 59 3.7 W 13 26 7 14 1006.6 1006.6 0.0
27/12:00pm 13.5 11.1 6.8 64 3.2 WSW 9 20 5 11 1006.8 1006.8 0.0
27/11:30am 12.7 10.6 6.7 67 2.9 W 7 19 4 10 1007.0 1007.0 0.0
27/11:00am 13.3 10.6 7.3 67 2.9 W 11 20 6 11 1007.2 1007.2 0.0
27/10:30am 12.8 10.7 6.6 66 3.0 WSW 7 13 4 7 1007.1 1007.1 0.0
27/10:00am 12.3 7.8 7.0 70 2.6 SW 20 37 11 20 1007.3 1007.3 0.0
27/09:30am 13.0 10.5 6.6 65 3.1 WSW 9 17 5 9 1007.1 1007.1 0.0
27/09:00am 12.6 9.7 6.6 67 2.9 SW 11 19 6 10 1006.9 1006.9 12.8
27/08:30am 12.1 9.7 6.8 70 2.5 WSW 9 19 5 10 1006.8 1006.8 12.8
27/08:00am 11.3 8.7 6.0 70 2.5 SW 9 19 5 10 1006.6 1006.6 12.8
27/07:30am 11.2 8.2 6.1 71 2.4 SW 11 17 6 9 1006.5 1006.5 12.8
27/07:00am 11.5 7.7 6.0 69 2.6 SW 15 24 8 13 1006.1 1006.1 12.8
27/06:30am 11.4 8.1 6.3 71 2.4 SW 13 20 7 11 1006.1 1006.1 12.8
27/06:00am 11.5 8.3 6.8 73 2.2 SW 13 24 7 13 1006.1 1006.1 12.8
27/05:30am 11.0 8.3 5.5 69 2.5 WSW 9 17 5 9 1006.0 1006.0 12.8
27/05:00am 11.3 7.8 5.6 68 2.6 WSW 13 24 7 13 1005.9 1005.9 12.8
27/04:30am 11.4 7.5 5.3 66 2.8 SW 15 30 8 16 1005.6 1005.6 12.8
27/04:00am 11.6 7.9 6.5 71 2.4 SW 15 22 8 12 1005.5 1005.5 12.8
27/03:30am 11.5 8.6 6.6 72 2.3 WSW 11 20 6 11 1005.6 1005.6 12.8
27/03:00am 11.4 8.4 5.9 69 2.6 WSW 11 19 6 10 1005.7 1005.7 12.8
27/02:30am 11.6 7.9 6.1 69 2.6 WSW 15 30 8 16 1005.7 1005.7 12.8
27/02:00am 11.6 8.2 6.1 69 2.6 SW 13 22 7 12 1005.7 1005.7 12.8
27/01:30am 11.3 8.8 6.4 72 2.3 WSW 9 19 5 10 1005.7 1005.7 12.8
27/01:00am 11.2 8.1 7.1 76 2.0 WSW 13 26 7 14 1005.7 1005.7 12.8
27/12:30am 10.6 8.1 6.7 77 1.8 WSW 9 17 5 9 1005.8 1005.8 12.8
27/12:00am 11.3 8.3 6.2 71 2.4 WSW 11 20 6 11 1005.9 1005.9 12.8
 
Date/Time
EST
Temp
°C
App
Temp
°C
Dew
Point
Rel
Hum
%
Delta-T
°C
Wind Press
QNH
hPa
Press
MSL
hPa
Rain
since 9 am
mm
Dir
 
Spd
km/h
Gust
km/h
Spd
kts
Gust
kts
26/11:30pm 10.3 7.5 6.8 79 1.6 W 11 19 6 10 1005.9 1005.9 12.8
26/11:00pm 11.3 7.4 7.0 75 2.1 SW 17 26 9 14 1006.0 1006.0 12.8
26/10:30pm 10.6 6.7 7.1 79 1.7 SW 17 28 9 15 1005.9 1005.9 12.8
26/10:18pm 10.9 7.6 8.1 83 1.4 WSW 15 41 8 22 1005.8 1005.8 12.8
26/10:00pm 10.5 8.9 8.9 90 0.8 WSW 7 13 4 7 1005.9 1005.9 12.8
26/09:30pm 10.3 7.6 8.9 91 0.7 WSW 13 28 7 15 1006.0 1006.0 12.6
26/09:00pm 10.8 8.6 9.2 90 0.8 W 11 20 6 11 1005.7 1005.7 12.0
26/08:30pm 10.9 8.7 7.8 81 1.5 WSW 9 15 5 8 1005.3 1005.3 12.0
26/08:00pm 11.1 7.4 8.0 81 1.5 SW 17 32 9 17 1005.1 1005.1 12.0
26/07:30pm 11.1 9.2 9.2 88 0.9 W 9 20 5 11 1005.0 1005.0 12.0
26/07:00pm 11.1 9.4 9.7 91 0.7 SW 9 17 5 9 1004.8 1004.8 12.0
26/06:30pm 10.3 8.0 8.9 91 0.7 SW 11 20 6 11 1004.4 1004.4 12.0
26/06:00pm 10.7 9.1 10.1 96 0.3 W 9 19 5 10 1004.2 1004.2 11.8
26/05:30pm 10.6 9.3 9.8 95 0.4 WSW 7 9 4 5 1003.8 1003.8 10.8
26/05:00pm 10.8 8.3 9.7 93 0.6 SW 13 20 7 11 1003.8 1003.8 10.0
26/04:30pm 11.4 10.0 9.5 88 1.0 SW 7 13 4 7 1003.3 1003.3 8.4
26/04:00pm 12.5 10.5 10.0 85 1.3 SSW 11 22 6 12 1003.0 1003.0 8.4
26/03:30pm 12.6 10.9 9.8 83 1.4 SW 9 15 5 8 1002.8 1002.8 8.4
26/03:00pm 12.3 10.1 9.3 82 1.5 SSW 11 19 6 10 1002.5 1002.5 8.4
26/02:30pm 11.5 9.3 9.4 87 1.1 SSW 11 22 6 12 1002.4 1002.4 8.4
26/02:00pm 11.6 9.0 10.8 95 0.4 S 15 24 8 13 1002.3 1002.3 8.4
26/01:30pm 11.6 9.1 11.1 97 0.3 S 15 28 8 15 1002.1 1002.1 8.4
26/01:00pm 11.5 9.3 10.9 96 0.3 SSW 13 22 7 12 1002.0 1002.0 7.6
26/12:30pm 10.9 6.6 10.7 99 0.1 S 24 41 13 22 1002.0 1002.0 7.6
26/12:00pm 11.5 8.7 11.3 99 0.1 S 17 26 9 14 1001.9 1001.9 6.6
26/11:30am 11.3 9.2 11.1 99 0.1 SW 13 26 7 14 1002.1 1002.1 5.8
26/11:00am 10.9 9.4 10.7 99 0.1 NW 9 19 5 10 1002.3 1002.3 4.6
26/10:30am 11.0 8.0 10.8 99 0.1 NNW 17 24 9 13 1002.5 1002.5 3.8
26/10:00am 10.8 7.4 10.6 99 0.1 NNW 19 26 10 14 1002.8 1002.8 2.8
26/09:30am 10.7 8.0 10.5 99 0.1 NNW 15 22 8 12 1002.9 1002.9 2.0
26/09:00am 10.6 7.2 10.4 99 0.1 NNW 19 28 10 15 1002.9 1002.9 5.0
26/08:30am 10.5 6.5 10.3 99 0.1 NNW 22 30 12 16 1003.0 1003.0 3.4
26/08:00am 10.7 5.9 10.4 98 0.2 NNW 26 35 14 19 1003.1 1003.1 3.0
26/07:30am 10.8 5.9 9.9 94 0.5 NNW 26 35 14 19 1003.1 1003.1 2.4
26/07:00am 11.2 6.6 9.8 91 0.7 NNW 24 35 13 19 1003.4 1003.4 2.4
26/06:30am 11.1 5.4 9.7 91 0.7 NNW 30 41 16 22 1003.3 1003.3 2.4
26/06:00am 11.1 5.7 9.5 90 0.8 NNW 28 37 15 20 1003.2 1003.2 2.4
26/05:30am 11.5 6.1 9.4 87 1.1 NNW 28 41 15 22 1003.7 1003.7 2.4
26/05:00am 11.5 7.6 9.6 88 1.0 NNW 20 32 11 17 1003.8 1003.8 2.4
26/04:30am 11.6 6.6 9.5 87 1.1 NNW 26 39 14 21 1003.7 1003.7 2.4
26/04:00am 11.7 7.2 9.9 89 0.9 NNW 24 35 13 19 1004.1 1004.1 2.4
26/03:30am 11.6 7.1 10.0 90 0.8 NNW 24 37 13 20 1004.3 1004.3 2.4
26/03:00am 11.7 6.4 9.9 89 0.9 NNW 28 39 15 21 1004.6 1004.6 2.4
26/02:30am 11.9 6.2 9.8 87 1.1 NNW 30 43 16 23 1004.9 1004.9 2.4
26/02:00am 11.7 6.4 9.9 89 0.9 NNW 28 44 15 24 1005.2 1005.2 2.4
26/01:30am 11.4 5.7 9.8 90 0.8 NNW 30 39 16 21 1005.6 1005.6 2.4
26/01:00am 11.6 5.4 10.0 90 0.8 NNW 33 43 18 23 1005.8 1005.8 2.4
26/12:30am 11.5 3.3 9.8 89 0.9 NNW 43 54 23 29 1006.3 1006.3 2.4
26/12:00am 11.4 3.8 10.6 95 0.4 NNW 41 54 22 29 1006.9 1006.9 2.4
 
Date/Time
EST
Temp
°C
App
Temp
°C
Dew
Point
Rel
Hum
%
Delta-T
°C
Wind Press
QNH
hPa
Press
MSL
hPa
Rain
since 9 am
mm
Dir
 
Spd
km/h
Gust
km/h
Spd
kts
Gust
kts
25/11:30pm 11.3 3.7 10.4 94 0.5 NNW 41 50 22 27 1007.0 1007.0 2.0
25/11:00pm 11.5 5.1 10.6 94 0.5 NNW 35 43 19 23 1007.3 1007.3 1.4
25/10:30pm 11.8 7.2 11.0 95 0.4 NNW 26 37 14 20 1007.5 1007.5 1.2
25/10:00pm 11.9 6.8 10.5 91 0.7 NNW 28 39 15 21 1007.8 1007.8 0.8

Other Formats:

Comma delimited format used in spreadsheet applications
http://www.bom.gov.au/fwo/IDV60801/IDV60801.94892.axf

JavaScript Object Notation format (JSON) in row-major order
http://www.bom.gov.au/fwo/IDV60801/IDV60801.94892.json